createdAt,value
2023-03-17T00:00:14.140Z,22.10
2023-03-17T00:02:49.657Z,20.80
2023-03-17T00:05:10.277Z,20.00
2023-03-17T00:07:23.626Z,21.40
2023-03-17T00:09:36.225Z,21.30
2023-03-17T00:11:48.945Z,20.80
2023-03-17T00:14:01.650Z,19.60
2023-03-17T00:16:27.085Z,19.20
2023-03-17T00:18:39.819Z,18.40
2023-03-17T00:20:52.620Z,18.60
2023-03-17T00:23:05.400Z,16.80
2023-03-17T00:25:29.922Z,18.30
2023-03-17T00:27:42.678Z,16.40
2023-03-17T00:29:55.206Z,19.00
2023-03-17T00:32:16.884Z,17.80
2023-03-17T00:34:29.867Z,20.00
2023-03-17T00:36:44.268Z,21.00
2023-03-17T00:38:57.372Z,17.70
2023-03-17T00:41:10.923Z,21.10
2023-03-17T00:43:23.451Z,15.40
2023-03-17T00:45:37.557Z,15.00
2023-03-17T00:47:52.219Z,12.60
2023-03-17T00:50:05.405Z,13.30
2023-03-17T00:52:17.965Z,13.30
2023-03-17T00:54:30.539Z,12.70
2023-03-17T00:56:44.522Z,13.20
2023-03-17T00:58:57.177Z,12.70
2023-03-17T01:01:10.770Z,12.80
2023-03-17T01:03:23.903Z,12.10
2023-03-17T01:05:37.865Z,12.30
2023-03-17T01:07:54.186Z,12.40
2023-03-17T01:10:18.418Z,12.60
2023-03-17T01:12:31.210Z,11.30
2023-03-17T01:14:43.838Z,12.00
2023-03-17T01:16:56.536Z,12.20
2023-03-17T01:19:10.847Z,11.90
2023-03-17T01:21:23.728Z,12.90
2023-03-17T01:23:37.386Z,11.90
2023-03-17T01:25:50.098Z,12.90
2023-03-17T01:28:03.407Z,12.70
2023-03-17T01:30:35.246Z,12.80
2023-03-17T01:32:48.173Z,12.90
2023-03-17T01:35:00.731Z,12.90
2023-03-17T01:37:15.055Z,12.90
2023-03-17T01:39:29.761Z,13.00
2023-03-17T01:41:42.599Z,14.50
2023-03-17T01:43:55.135Z,13.90
2023-03-17T01:46:29.790Z,13.50
2023-03-17T01:48:55.474Z,13.70
2023-03-17T01:51:12.296Z,15.10
2023-03-17T01:53:25.466Z,15.30
2023-03-17T01:55:38.384Z,16.20
2023-03-17T01:57:56.483Z,16.80
2023-03-17T02:00:14.060Z,15.50
2023-03-17T02:02:32.210Z,14.40
2023-03-17T02:04:44.920Z,14.20
2023-03-17T02:06:59.050Z,14.10
2023-03-17T02:09:12.337Z,13.20
2023-03-17T02:11:25.035Z,14.20
2023-03-17T02:13:38.431Z,13.60
2023-03-17T02:15:52.902Z,13.20
2023-03-17T02:18:06.735Z,14.10
2023-03-17T02:20:19.841Z,13.70
2023-03-17T02:22:32.753Z,14.00
2023-03-17T02:24:52.652Z,13.60
2023-03-17T02:27:13.570Z,12.90
2023-03-17T02:29:26.164Z,13.60
2023-03-17T02:31:38.722Z,12.80
2023-03-17T02:33:52.179Z,12.80
2023-03-17T02:36:04.958Z,13.30
2023-03-17T02:38:17.626Z,12.80
2023-03-17T02:40:30.486Z,12.70
2023-03-17T02:42:43.319Z,12.80
2023-03-17T02:44:55.948Z,13.00
2023-03-17T02:47:08.707Z,12.70
2023-03-17T02:49:21.913Z,12.90
2023-03-17T02:51:34.531Z,12.90
2023-03-17T02:53:47.105Z,12.40
2023-03-17T02:55:59.616Z,12.80
2023-03-17T02:58:12.194Z,12.10
2023-03-17T03:00:24.921Z,12.30
2023-03-17T03:02:39.036Z,11.80
2023-03-17T03:04:51.621Z,12.20
2023-03-17T03:07:04.720Z,13.20
2023-03-17T03:09:17.940Z,12.40
2023-03-17T03:11:30.763Z,11.50
2023-03-17T03:13:43.323Z,12.90
2023-03-17T03:15:56.249Z,12.50
2023-03-17T03:18:08.956Z,11.70
2023-03-17T03:20:21.576Z,12.40
2023-03-17T03:22:34.167Z,12.30
2023-03-17T03:24:46.912Z,12.00
2023-03-17T03:26:59.509Z,11.10
2023-03-17T03:29:12.157Z,11.40
2023-03-17T03:31:24.897Z,11.40
2023-03-17T03:33:37.505Z,11.80
2023-03-17T03:35:50.153Z,11.40
2023-03-17T03:38:02.792Z,11.70
2023-03-17T03:40:15.440Z,11.30
2023-03-17T03:42:28.029Z,11.20
2023-03-17T03:44:40.796Z,10.50
2023-03-17T03:46:53.336Z,11.30
2023-03-17T03:49:06.264Z,10.80
2023-03-17T03:51:18.927Z,10.40
2023-03-17T03:53:31.534Z,10.50
2023-03-17T03:55:44.090Z,10.00
2023-03-17T03:57:56.708Z,10.70
2023-03-17T04:00:11.215Z,10.50
2023-03-17T04:02:23.908Z,9.70
2023-03-17T04:04:36.999Z,10.00
2023-03-17T04:06:49.587Z,9.80
2023-03-17T04:09:02.409Z,10.00
2023-03-17T04:11:15.152Z,9.80
2023-03-17T04:13:27.995Z,9.50
2023-03-17T04:15:40.823Z,9.90
2023-03-17T04:17:55.049Z,9.30
2023-03-17T04:20:08.461Z,9.10
2023-03-17T04:22:20.967Z,9.20
2023-03-17T04:24:34.875Z,9.60
2023-03-17T04:26:47.490Z,8.80
2023-03-17T04:29:00.535Z,9.00
2023-03-17T04:31:13.203Z,8.70
2023-03-17T04:33:26.601Z,9.10
2023-03-17T04:35:39.268Z,9.00
2023-03-17T04:37:51.825Z,9.00
2023-03-17T04:40:06.401Z,9.50
2023-03-17T04:42:19.147Z,9.60
2023-03-17T04:44:32.424Z,10.00
2023-03-17T04:46:45.044Z,9.60
2023-03-17T04:48:57.726Z,9.90
2023-03-17T04:51:11.744Z,9.30
2023-03-17T04:53:24.634Z,9.40
2023-03-17T04:55:37.521Z,9.50
2023-03-17T04:57:50.124Z,9.10
2023-03-17T05:00:04.994Z,11.90
2023-03-17T05:02:18.840Z,9.60
2023-03-17T05:04:32.440Z,9.70
2023-03-17T05:06:45.725Z,9.60
2023-03-17T05:08:58.361Z,8.80
2023-03-17T05:11:12.500Z,10.10
2023-03-17T05:13:26.599Z,10.10
2023-03-17T05:15:40.068Z,9.50
2023-03-17T05:17:52.934Z,9.60
2023-03-17T05:20:06.111Z,9.20
2023-03-17T05:22:19.953Z,8.80
2023-03-17T05:24:32.825Z,9.40
2023-03-17T05:26:45.612Z,9.50
2023-03-17T05:28:58.641Z,9.60
2023-03-17T05:31:11.775Z,9.60
2023-03-17T05:33:25.034Z,9.70
2023-03-17T05:35:37.817Z,9.50
2023-03-17T05:37:50.385Z,9.30
2023-03-17T05:40:03.454Z,9.50
2023-03-17T05:42:16.370Z,9.60
2023-03-17T05:44:29.032Z,9.50
2023-03-17T05:46:42.023Z,9.20
2023-03-17T05:48:54.731Z,9.60
2023-03-17T05:51:07.428Z,8.90
2023-03-17T05:53:20.030Z,9.80
2023-03-17T05:55:32.606Z,9.40
2023-03-17T05:57:45.598Z,9.40
2023-03-17T05:59:58.190Z,9.80
2023-03-17T06:02:11.424Z,8.80
2023-03-17T06:04:26.398Z,9.30
2023-03-17T06:06:39.062Z,8.50
2023-03-17T06:08:51.687Z,8.80
2023-03-17T06:11:04.388Z,8.80
2023-03-17T06:13:17.042Z,8.90
2023-03-17T06:15:29.960Z,8.80
2023-03-17T06:17:43.107Z,9.10
2023-03-17T06:19:55.903Z,9.00
2023-03-17T06:22:09.262Z,8.80
2023-03-17T06:24:21.916Z,9.00
2023-03-17T06:26:34.642Z,9.20
2023-03-17T06:28:47.266Z,8.90
2023-03-17T06:31:00.012Z,9.60
2023-03-17T06:33:13.125Z,9.40
2023-03-17T06:35:25.734Z,9.80
2023-03-17T06:37:38.850Z,9.80
2023-03-17T06:39:51.853Z,10.10
2023-03-17T06:42:06.253Z,10.00
2023-03-17T06:44:19.088Z,10.60
2023-03-17T06:46:32.479Z,10.50
2023-03-17T06:48:45.086Z,9.40
2023-03-17T06:50:57.663Z,9.50
2023-03-17T06:53:11.416Z,10.50
2023-03-17T06:55:24.054Z,10.10
2023-03-17T06:57:37.233Z,10.40
2023-03-17T06:59:49.791Z,10.50
2023-03-17T07:02:02.495Z,11.00
2023-03-17T07:04:15.902Z,11.10
2023-03-17T07:06:28.622Z,11.20
2023-03-17T07:08:41.662Z,11.30
2023-03-17T07:10:56.103Z,11.60
2023-03-17T07:13:10.138Z,11.50
2023-03-17T07:15:23.960Z,11.40
2023-03-17T07:17:36.552Z,12.30
2023-03-17T07:19:49.189Z,12.20
2023-03-17T07:22:01.833Z,12.40
2023-03-17T07:24:14.558Z,12.90
2023-03-17T07:26:27.244Z,12.60
2023-03-17T07:28:40.485Z,12.00
2023-03-17T07:30:53.111Z,12.30
2023-03-17T07:33:05.742Z,12.40
2023-03-17T07:35:19.216Z,12.70
2023-03-17T07:37:32.008Z,13.40
2023-03-17T07:39:47.125Z,12.80
2023-03-17T07:41:59.720Z,11.90
2023-03-17T07:44:12.491Z,12.50
2023-03-17T07:46:25.290Z,12.00
2023-03-17T07:48:42.005Z,11.70
2023-03-17T07:50:54.562Z,11.80
2023-03-17T07:53:07.123Z,12.40
2023-03-17T07:55:19.658Z,12.40
2023-03-17T07:57:32.657Z,12.60
2023-03-17T07:59:45.553Z,13.00
2023-03-17T08:01:59.620Z,12.20
2023-03-17T08:04:13.243Z,12.00
2023-03-17T08:06:26.566Z,11.60
2023-03-17T08:08:39.213Z,12.10
2023-03-17T08:10:51.943Z,12.30
2023-03-17T08:13:04.635Z,11.90
2023-03-17T08:15:18.389Z,13.00
2023-03-17T08:17:31.754Z,12.20
2023-03-17T08:19:44.306Z,11.80
2023-03-17T08:21:57.106Z,12.00
2023-03-17T08:24:09.886Z,11.30
2023-03-17T08:26:23.180Z,12.90
2023-03-17T08:28:36.162Z,11.60
2023-03-17T08:30:50.614Z,12.80
2023-03-17T08:33:04.015Z,11.90
2023-03-17T08:35:17.217Z,11.50
2023-03-17T08:37:29.730Z,11.00
2023-03-17T08:39:42.321Z,10.20
2023-03-17T08:41:54.851Z,10.10
2023-03-17T08:44:09.975Z,9.80
2023-03-17T08:46:28.157Z,10.00
2023-03-17T08:48:41.401Z,10.00
2023-03-17T08:50:54.011Z,9.70
2023-03-17T08:53:08.409Z,9.60
2023-03-17T08:55:21.164Z,9.80
2023-03-17T08:57:33.664Z,9.00
2023-03-17T08:59:47.395Z,8.30
2023-03-17T09:02:00.567Z,8.10
2023-03-17T09:04:13.204Z,8.40
2023-03-17T09:06:26.849Z,8.10
2023-03-17T09:08:44.667Z,8.20
2023-03-17T09:10:57.726Z,8.50
2023-03-17T09:13:11.558Z,8.40
2023-03-17T09:15:27.643Z,8.20
2023-03-17T09:17:42.144Z,7.40
2023-03-17T09:19:54.678Z,7.70
2023-03-17T09:22:07.754Z,7.50
2023-03-17T09:24:20.579Z,7.40
2023-03-17T09:26:33.108Z,7.50
2023-03-17T09:28:45.796Z,7.10
2023-03-17T09:31:03.411Z,7.50
2023-03-17T09:33:17.657Z,6.80
2023-03-17T09:35:31.548Z,7.10
2023-03-17T09:37:44.285Z,6.70
2023-03-17T09:39:57.966Z,6.30
2023-03-17T09:42:24.544Z,5.40
2023-03-17T09:45:34.786Z,5.70
2023-03-17T09:48:02.863Z,5.80
2023-03-17T09:50:25.396Z,7.00
2023-03-17T09:52:38.349Z,5.80
2023-03-17T09:54:54.686Z,5.30
2023-03-17T09:57:18.120Z,5.50
2023-03-17T09:59:35.470Z,5.20
2023-03-17T10:01:48.066Z,5.40
2023-03-17T10:04:02.665Z,4.90
2023-03-17T10:06:18.688Z,5.00
2023-03-17T10:08:38.680Z,5.00
2023-03-17T10:10:57.276Z,4.80
2023-03-17T10:13:51.370Z,4.90
2023-03-17T10:16:17.543Z,4.90
2023-03-17T10:18:37.591Z,5.10
2023-03-17T10:21:04.755Z,5.10
2023-03-17T10:23:25.922Z,5.00
2023-03-17T10:25:39.403Z,4.70
2023-03-17T10:28:16.002Z,4.60
2023-03-17T10:30:33.438Z,4.30
2023-03-17T10:32:46.722Z,3.90
2023-03-17T10:34:59.339Z,3.60
2023-03-17T10:37:18.813Z,3.70
2023-03-17T10:39:32.948Z,3.80
2023-03-17T10:41:53.574Z,4.00
2023-03-17T10:44:21.028Z,4.30
2023-03-17T10:46:33.617Z,4.20
2023-03-17T10:48:56.063Z,4.30
2023-03-17T10:51:10.059Z,4.00
2023-03-17T10:53:30.375Z,3.90
2023-03-17T10:55:49.774Z,4.00
2023-03-17T10:58:27.103Z,3.90
2023-03-17T11:00:57.145Z,4.00
2023-03-17T11:03:21.309Z,4.90
2023-03-17T11:05:34.013Z,3.80
2023-03-17T11:07:46.814Z,4.00
2023-03-17T11:10:05.324Z,3.80
2023-03-17T11:12:28.699Z,4.30
2023-03-17T11:14:43.551Z,3.60
2023-03-17T11:17:02.651Z,3.50
2023-03-17T11:19:18.494Z,3.70
2023-03-17T11:21:46.792Z,3.70
2023-03-17T11:24:18.768Z,3.70
2023-03-17T11:26:43.253Z,3.50
2023-03-17T11:29:26.449Z,3.80
2023-03-17T11:31:49.403Z,3.60
2023-03-17T11:34:23.393Z,3.60
2023-03-17T11:37:00.103Z,3.40
2023-03-17T11:39:17.179Z,3.50
2023-03-17T11:41:45.019Z,3.50
2023-03-17T11:44:22.073Z,3.30
2023-03-17T11:46:43.847Z,3.50
2023-03-17T11:49:10.095Z,3.30
2023-03-17T11:51:34.514Z,3.50
2023-03-17T11:54:02.217Z,3.60
2023-03-17T11:56:20.352Z,3.40
2023-03-17T11:58:37.572Z,3.20
2023-03-17T12:00:57.048Z,3.30
2023-03-17T12:03:17.683Z,3.20
2023-03-17T12:05:30.676Z,3.40
2023-03-17T12:07:55.400Z,3.30
2023-03-17T12:10:34.396Z,3.20
2023-03-17T12:12:58.196Z,3.10
2023-03-17T12:15:18.709Z,3.40
2023-03-17T12:17:36.644Z,3.30
2023-03-17T12:20:07.059Z,3.80
2023-03-17T12:22:28.448Z,3.50
2023-03-17T12:24:47.550Z,3.50
2023-03-17T12:27:07.482Z,3.50
2023-03-17T12:29:47.363Z,3.80
2023-03-17T12:32:12.321Z,3.50
2023-03-17T12:34:45.068Z,3.50
2023-03-17T12:36:58.098Z,3.40
2023-03-17T12:39:18.863Z,3.30
2023-03-17T12:41:49.045Z,3.70
2023-03-17T12:44:27.408Z,3.40
2023-03-17T12:46:54.060Z,3.30
2023-03-17T12:49:45.112Z,3.30
2023-03-17T12:52:12.654Z,3.60
2023-03-17T12:54:29.564Z,3.30
2023-03-17T12:56:47.738Z,3.00
2023-03-17T12:59:07.307Z,3.10
2023-03-17T13:01:39.427Z,3.10
2023-03-17T13:04:12.862Z,3.40
2023-03-17T13:06:25.570Z,3.40
2023-03-17T13:08:44.097Z,3.10
2023-03-17T13:11:34.286Z,3.00
2023-03-17T13:13:49.620Z,3.10
2023-03-17T13:16:06.328Z,3.20
2023-03-17T13:18:18.983Z,3.20
2023-03-17T13:20:39.046Z,2.90
2023-03-17T13:23:16.477Z,3.30
2023-03-17T13:25:45.495Z,3.50
2023-03-17T13:28:22.695Z,3.50
2023-03-17T13:30:44.607Z,3.20
2023-03-17T13:33:16.396Z,3.20
2023-03-17T13:35:45.298Z,3.10
2023-03-17T13:38:19.693Z,3.40
2023-03-17T13:40:57.979Z,3.30
2023-03-17T13:43:28.221Z,3.20
2023-03-17T13:45:46.229Z,3.00
2023-03-17T13:48:29.686Z,3.50
2023-03-17T13:50:42.982Z,3.50
2023-03-17T13:53:01.688Z,3.60
2023-03-17T13:55:17.273Z,3.60
2023-03-17T13:57:39.026Z,3.50
2023-03-17T14:00:02.682Z,3.60
2023-03-17T14:02:21.498Z,3.70
2023-03-17T14:04:46.314Z,3.50
2023-03-17T14:07:05.300Z,3.40
2023-03-17T14:09:38.969Z,3.70
2023-03-17T14:11:52.512Z,3.40
2023-03-17T14:14:33.525Z,3.30
2023-03-17T14:17:16.361Z,3.10
2023-03-17T14:19:29.872Z,3.20
2023-03-17T14:21:42.987Z,3.50
2023-03-17T14:23:58.579Z,3.60
2023-03-17T14:26:11.805Z,3.40
2023-03-17T14:28:28.391Z,3.40
2023-03-17T14:30:52.148Z,3.30
2023-03-17T14:33:26.483Z,3.60
2023-03-17T14:35:43.212Z,3.60
2023-03-17T14:37:55.933Z,3.70
2023-03-17T14:40:20.816Z,3.50
2023-03-17T14:42:33.396Z,3.30
2023-03-17T14:44:46.066Z,3.40
2023-03-17T14:47:04.554Z,3.60
2023-03-17T14:49:21.185Z,3.30
2023-03-17T14:51:36.200Z,3.50
2023-03-17T14:53:51.029Z,3.20
2023-03-17T14:56:04.395Z,4.20
2023-03-17T14:58:27.037Z,4.10
2023-03-17T15:00:54.695Z,4.30
2023-03-17T15:03:20.550Z,4.30
2023-03-17T15:05:39.940Z,3.80
2023-03-17T15:07:52.943Z,3.60
2023-03-17T15:10:15.723Z,3.80
2023-03-17T15:12:29.508Z,3.30
2023-03-17T15:14:44.583Z,3.30
2023-03-17T15:16:57.735Z,3.30
2023-03-17T15:19:53.625Z,3.30
2023-03-17T15:22:30.969Z,3.40
2023-03-17T15:24:44.191Z,3.40
2023-03-17T15:27:17.549Z,3.50
2023-03-17T15:29:30.541Z,4.20
2023-03-17T15:31:43.203Z,4.00
2023-03-17T15:33:57.381Z,4.20
2023-03-17T15:36:31.229Z,4.10
2023-03-17T15:38:44.678Z,5.10
2023-03-17T15:40:57.613Z,4.00
2023-03-17T15:43:15.342Z,4.10
2023-03-17T15:45:27.885Z,3.80
2023-03-17T15:47:41.848Z,3.70
2023-03-17T15:50:01.892Z,4.00
2023-03-17T15:52:17.358Z,3.70
2023-03-17T15:54:29.968Z,4.10
2023-03-17T15:56:43.244Z,4.60
2023-03-17T15:58:55.970Z,5.20
2023-03-17T16:01:10.647Z,5.30
2023-03-17T16:03:32.484Z,5.40
2023-03-17T16:05:45.353Z,4.80
2023-03-17T16:07:58.035Z,4.80
2023-03-17T16:10:20.614Z,4.50
2023-03-17T16:12:33.100Z,4.70
2023-03-17T16:14:45.774Z,4.40
2023-03-17T16:16:58.337Z,4.20
2023-03-17T16:19:22.814Z,4.10
2023-03-17T16:21:36.017Z,4.30
2023-03-17T16:23:49.153Z,4.00
2023-03-17T16:26:14.136Z,4.40
2023-03-17T16:28:31.158Z,4.40
2023-03-17T16:30:44.770Z,4.70
2023-03-17T16:33:00.976Z,5.00
2023-03-17T16:35:15.744Z,4.60
2023-03-17T16:37:28.268Z,4.70
2023-03-17T16:39:42.144Z,5.10
2023-03-17T16:41:54.749Z,5.00
2023-03-17T16:44:11.330Z,5.40
2023-03-17T16:46:26.494Z,5.70
2023-03-17T16:48:39.180Z,6.40
2023-03-17T16:50:52.185Z,6.00
2023-03-17T16:53:04.703Z,6.10
2023-03-17T16:55:19.263Z,5.50
2023-03-17T16:57:33.192Z,5.70
2023-03-17T16:59:45.782Z,4.90
2023-03-17T17:01:58.459Z,4.90
2023-03-17T17:04:11.229Z,4.60
2023-03-17T17:06:24.045Z,5.00
2023-03-17T17:08:36.584Z,4.90
2023-03-17T17:10:49.735Z,4.70
2023-03-17T17:13:05.898Z,5.10
2023-03-17T17:15:21.734Z,5.20
2023-03-17T17:17:36.243Z,5.50
2023-03-17T17:19:48.804Z,5.80
2023-03-17T17:22:01.474Z,5.60
2023-03-17T17:24:16.107Z,6.10
2023-03-17T17:26:28.631Z,5.80
2023-03-17T17:28:41.315Z,5.90
2023-03-17T17:30:54.084Z,6.10
2023-03-17T17:33:06.800Z,6.30
2023-03-17T17:35:19.535Z,6.50
2023-03-17T17:37:32.625Z,6.40
2023-03-17T17:39:45.240Z,6.60
2023-03-17T17:41:57.772Z,6.80
2023-03-17T17:44:10.389Z,6.70
2023-03-17T17:46:23.145Z,6.70
2023-03-17T17:48:35.946Z,6.80
2023-03-17T17:50:49.318Z,6.90
2023-03-17T17:53:05.487Z,6.60
2023-03-17T17:55:19.288Z,6.50
2023-03-17T17:57:32.105Z,6.40
2023-03-17T17:59:44.902Z,6.60
2023-03-17T18:01:59.823Z,6.50
2023-03-17T18:04:12.858Z,6.40
2023-03-17T18:06:25.595Z,6.60
2023-03-17T18:08:38.432Z,6.40
2023-03-17T18:10:52.214Z,6.80
2023-03-17T18:13:05.293Z,7.50
2023-03-17T18:15:18.073Z,7.40
2023-03-17T18:17:32.435Z,7.60
2023-03-17T18:19:45.136Z,7.90
2023-03-17T18:21:57.712Z,8.00
2023-03-17T18:24:10.347Z,8.40
2023-03-17T18:26:23.635Z,7.90
2023-03-17T18:28:36.635Z,7.30
2023-03-17T18:30:49.707Z,7.80
2023-03-17T18:33:09.126Z,7.80
2023-03-17T18:35:24.187Z,7.60
2023-03-17T18:37:37.172Z,7.50
2023-03-17T18:40:09.726Z,7.30
2023-03-17T18:42:22.484Z,7.40
2023-03-17T18:44:35.344Z,7.90
2023-03-17T18:46:48.356Z,7.60
2023-03-17T18:49:01.010Z,8.40
2023-03-17T18:51:13.551Z,8.10
2023-03-17T18:53:26.214Z,7.90
2023-03-17T18:55:39.319Z,8.10
2023-03-17T18:57:51.861Z,7.30
2023-03-17T19:00:06.900Z,7.70
2023-03-17T19:02:20.589Z,8.50
2023-03-17T19:04:33.232Z,8.40
2023-03-17T19:06:46.488Z,9.30
2023-03-17T19:08:59.095Z,9.00
2023-03-17T19:11:13.915Z,9.00
2023-03-17T19:13:26.499Z,10.00
2023-03-17T19:15:39.170Z,11.30
2023-03-17T19:17:51.825Z,14.40
2023-03-17T19:20:06.006Z,15.20
2023-03-17T19:22:18.638Z,17.90
2023-03-17T19:24:32.158Z,16.30
2023-03-17T19:26:44.957Z,14.20
2023-03-17T19:28:57.557Z,12.40
2023-03-17T19:31:10.261Z,15.30
2023-03-17T19:33:22.956Z,18.90
2023-03-17T19:35:35.535Z,17.00
2023-03-17T19:37:48.307Z,15.10
2023-03-17T19:40:00.829Z,12.00
2023-03-17T19:42:13.786Z,11.40
2023-03-17T19:44:26.603Z,11.10
2023-03-17T19:46:39.328Z,10.10
2023-03-17T19:48:53.443Z,10.70
2023-03-17T19:51:06.717Z,10.40
2023-03-17T19:53:19.286Z,10.50
2023-03-17T19:55:32.030Z,10.30
2023-03-17T19:57:44.799Z,10.40
2023-03-17T19:59:57.706Z,10.60
2023-03-17T20:02:15.115Z,11.10
2023-03-17T20:04:27.824Z,11.00
2023-03-17T20:06:40.423Z,11.60
2023-03-17T20:08:53.028Z,11.20
2023-03-17T20:11:06.262Z,11.30
2023-03-17T20:13:18.814Z,11.10
2023-03-17T20:15:31.468Z,11.40
2023-03-17T20:17:44.073Z,10.70
2023-03-17T20:19:56.588Z,11.30
2023-03-17T20:22:09.180Z,11.50
2023-03-17T20:24:22.368Z,11.40
2023-03-17T20:26:35.202Z,11.70
2023-03-17T20:28:47.753Z,10.70
2023-03-17T20:31:02.874Z,10.20
2023-03-17T20:33:16.475Z,10.60
2023-03-17T20:35:29.059Z,10.10
2023-03-17T20:37:41.705Z,10.40
2023-03-17T20:39:55.956Z,10.10
2023-03-17T20:42:14.823Z,10.30
2023-03-17T20:44:27.423Z,10.20
2023-03-17T20:46:40.285Z,10.40
2023-03-17T20:48:58.592Z,10.10
2023-03-17T20:51:16.327Z,9.30
2023-03-17T20:53:29.683Z,8.80
2023-03-17T20:55:42.447Z,9.00
2023-03-17T20:57:54.968Z,9.10
2023-03-17T21:00:12.509Z,8.50
2023-03-17T21:02:25.375Z,8.30
2023-03-17T21:04:37.902Z,7.90
2023-03-17T21:06:50.628Z,7.90
2023-03-17T21:09:04.614Z,7.80
2023-03-17T21:11:20.293Z,8.00
2023-03-17T21:13:33.050Z,7.70
2023-03-17T21:15:45.581Z,8.20
2023-03-17T21:17:58.347Z,7.80
2023-03-17T21:20:12.685Z,8.00
2023-03-17T21:22:25.649Z,8.00
2023-03-17T21:24:39.790Z,8.00
2023-03-17T21:26:52.393Z,7.70
2023-03-17T21:29:05.134Z,8.00
2023-03-17T21:31:18.278Z,8.10
2023-03-17T21:33:31.216Z,8.10
2023-03-17T21:35:43.954Z,8.30
2023-03-17T21:37:57.711Z,8.30
2023-03-17T21:40:13.343Z,8.20
2023-03-17T21:42:25.958Z,8.40
2023-03-17T21:44:39.233Z,8.40
2023-03-17T21:46:53.422Z,8.50
2023-03-17T21:49:06.141Z,8.60
2023-03-17T21:51:19.933Z,8.10
2023-03-17T21:53:33.277Z,8.30
2023-03-17T21:55:45.971Z,8.00
2023-03-17T21:57:59.155Z,7.80
2023-03-17T22:00:12.708Z,7.80
2023-03-17T22:02:25.400Z,7.70
2023-03-17T22:04:38.555Z,8.00
2023-03-17T22:06:52.149Z,8.10
2023-03-17T22:09:05.378Z,7.60
2023-03-17T22:11:19.426Z,7.50
2023-03-17T22:13:31.972Z,7.60
2023-03-17T22:15:44.805Z,7.50
2023-03-17T22:17:57.686Z,7.60
2023-03-17T22:20:11.377Z,8.10
2023-03-17T22:22:24.944Z,7.70
2023-03-17T22:24:40.807Z,8.20
2023-03-17T22:26:53.495Z,7.90
2023-03-17T22:29:06.248Z,7.40
2023-03-17T22:31:25.153Z,7.70
2023-03-17T22:33:38.564Z,7.90
2023-03-17T22:35:51.223Z,8.10
2023-03-17T22:38:04.450Z,7.90
2023-03-17T22:40:19.005Z,8.20
2023-03-17T22:42:32.312Z,8.10
2023-03-17T22:44:44.918Z,7.40
2023-03-17T22:46:57.513Z,7.50
2023-03-17T22:49:10.145Z,7.00
2023-03-17T22:51:24.904Z,7.40
2023-03-17T22:53:38.930Z,6.50
2023-03-17T22:55:51.579Z,7.30
2023-03-17T22:58:04.258Z,7.10
2023-03-17T23:00:17.282Z,6.80
2023-03-17T23:02:29.800Z,6.70
2023-03-17T23:04:42.893Z,6.60
2023-03-17T23:06:56.267Z,6.80
2023-03-17T23:09:09.443Z,6.60
2023-03-17T23:11:24.645Z,6.60
2023-03-17T23:13:37.237Z,6.40
2023-03-17T23:15:50.460Z,6.30
2023-03-17T23:18:03.800Z,6.00
2023-03-17T23:20:16.753Z,6.10
2023-03-17T23:22:29.312Z,5.90
2023-03-17T23:24:41.877Z,6.40
2023-03-17T23:26:54.440Z,6.50
2023-03-17T23:29:08.465Z,7.00
2023-03-17T23:31:22.311Z,6.40
2023-03-17T23:33:35.118Z,6.80
2023-03-17T23:35:50.153Z,7.10
2023-03-17T23:38:04.021Z,6.50
2023-03-17T23:40:17.598Z,6.70
2023-03-17T23:42:30.359Z,7.10
2023-03-17T23:44:42.975Z,7.80
2023-03-17T23:46:55.565Z,8.50
2023-03-17T23:49:08.212Z,8.30
2023-03-17T23:51:21.176Z,8.00
2023-03-17T23:53:33.856Z,8.50
2023-03-17T23:55:46.806Z,8.70
2023-03-17T23:58:01.260Z,8.30
